Aviation Digital Data Service (ADDS)

Output produced by METARs form (0106 UTC 24 May 2022)
found at http://www.aviationweather.gov/metar/data/
 
TAF AMD WPDL 232325Z 2323/2412 15005KT CAVOK 
     FM240100 30008KT CAVOK 
     FM240500 03012KT CAVOK INTER 2408/2412 3000 SHRA BKN012